Terminal Aerodrome Forecast
Issued by NWS

Home | Current Version | Previous Version | Text Only | Print | Product List | Glossary On
Versions: 1 2 3 4 5 6 7 8 9 10 11 12 13 14 15 16 17 18 19 20 21
000
FTUS41 KILN 052300
TAFLUK
TAF
KLUK 052320Z 0600/0624 VRB02KT P6SM SKC
     FM060600 00000KT 4SM BR SKC
     FM060800 00000KT 1SM BR SKC
      TEMPO 0608/0611 1/4SM FG BKN002
     FM061100 00000KT 4SM BR SKC
     FM061400 20003KT P6SM SKC
     FM061700 22004KT P6SM SCT070=

USA.gov is the U.S. government's official web portal to all federal, state and local government web resources and services.